Irenes Rainbow — A8WG4 — position and weather

sailwx.info

Track history (hours):
 
Tides and Currents Weather Stations Pressure Air Temp Water Temp Dewpoint Dewpoint Depression Visibility Wind Speed Wind Dir Waves Ship Positions

Irenes Rainbow

Last reported at 2018-Feb-18 03:00 UTC. Time now 2018-Feb-18 03:30 UTC.
Position N 37°19' W 000°56'.

Length 222 m; draft 9.9 m.

Type: Ship (hazmat cat A). MMSI: 636014741.

Date/timePositionNaut miles runAvg speedWind from/ knotsBaromVisibWave heightAir tempDewpointWater temp
2018-Feb-18 03:00N 37°19' W 000°56'713.4
2018-Feb-18 02:30N 37°23' W 000°50'713.7
2018-Feb-18 02:00N 37°28' W 000°44'713.4
2018-Feb-18 01:30N 37°32' W 000°37'612.7
2018-Feb-18 01:00N 37°37' W 000°32'612.6
2018-Feb-18 00:30N 37°42' W 000°27'712.4
2018-Feb-17 23:58N 37°47' W 000°23'612.5
2018-Feb-17 23:29N 37°53' W 000°19'612.8
2018-Feb-17 23:00N 37°58' W 000°14'712.8
2018-Feb-17 22:26N 38°04' W 000°09'8010.5
2018-Feb-17 14:45N 39°24' W 000°13'312.4
2018-Feb-17 14:30N 39°25' W 000°17'2 4.7
2018-Feb-17 13:59N 39°26' W 000°20'0 0.0
2018-Feb-17 13:29N 39°26' W 000°20'0 0.0
2018-Feb-17 12:59N 39°26' W 000°20'0 0.0
2018-Feb-17 12:29N 39°26' W 000°20'0 0.0
2018-Feb-17 11:41N 39°26' W 000°20'0 0.0
2018-Feb-17 11:29N 39°26' W 000°20'0 0.0
2018-Feb-17 10:59N 39°26' W 000°20'0 0.0
2018-Feb-17 10:29N 39°26' W 000°20'0 0.0
2018-Feb-17 09:59N 39°26' W 000°20'0 0.0
2018-Feb-17 09:29N 39°26' W 000°20'0 0.0
2018-Feb-17 08:59N 39°26' W 000°20'0 0.0
2018-Feb-17 08:29N 39°26' W 000°20'0 0.0
2018-Feb-17 07:59N 39°26' W 000°20'0 0.0
2018-Feb-17 07:29N 39°26' W 000°20'0 0.0
2018-Feb-17 06:59N 39°26' W 000°20'0 0.0
2018-Feb-17 06:29N 39°26' W 000°20'0 0.0
2018-Feb-17 05:59N 39°26' W 000°20'0 0.0
2018-Feb-17 05:29N 39°26' W 000°20'0 0.0
2018-Feb-17 04:59N 39°26' W 000°20'0 0.0
2018-Feb-17 04:29N 39°26' W 000°20'0 0.0
2018-Feb-17 03:59N 39°26' W 000°20'0 0.0
2018-Feb-17 03:29N 39°26' W 000°20'0 0.0
2018-Feb-17 02:59N 39°26' W 000°20'0 0.8
2018-Feb-17 02:31N 39°26' W 000°19'3 5.3
2018-Feb-17 02:00N 39°26' W 000°16'2 0.7
2018-Feb-16 23:35N 39°25' W 000°14'0 0.3
2018-Feb-16 23:30N 39°25' W 000°14'0 0.4
2018-Feb-16 23:00N 39°25' W 000°14'0 0.6
2018-Feb-16 22:28N 39°26' W 000°14'4 7.3
2018-Feb-16 21:58N 39°28' W 000°10'612.6
2018-Feb-16 21:30N 39°33' W 000°06'115 5.0
2018-Feb-15 22:42N 40°46' E 001°51'313.2
2018-Feb-15 22:27N 40°47' E 001°55'713.3
2018-Feb-15 21:57N 40°51' E 002°01'613.3
2018-Feb-15 21:29N 40°55' E 002°08'813.3
2018-Feb-15 20:55N 41°00' E 002°16'613.5
2018-Feb-15 20:30N 41°03' E 002°22'713.7
2018-Feb-15 20:00N 41°07' E 002°29'713.4
2018-Feb-15 19:30N 41°11' E 002°36'813.3
2018-Feb-15 18:52N 41°16' E 002°45'513.2
2018-Feb-15 18:30N 41°19' E 002°50'21412.7
2018-Feb-15 01:39N 43°03' E 007°03'211.3
2018-Feb-15 01:30N 43°04' E 007°05'611.6
2018-Feb-15 01:00N 43°08' E 007°11'611.5
2018-Feb-15 00:30N 43°11' E 007°17'611.2
2018-Feb-15 00:00N 43°15' E 007°22'611.2
2018-Feb-14 23:30N 43°19' E 007°28'611.2
2018-Feb-14 23:00N 43°23' E 007°34'611.5
2018-Feb-14 22:30N 43°26' E 007°40'4611.5
2018-Feb-14 18:31N 43°57' E 008°27'511.4
2018-Feb-14 18:04N 44°01' E 008°32'111.5
2018-Feb-14 18:00N 44°01' E 008°33'611.5
2018-Feb-14 17:30N 44°05' E 008°38'611.7
2018-Feb-14 17:00N 44°10' E 008°44'611.7
2018-Feb-14 16:30N 44°14' E 008°50'611.4
2018-Feb-14 16:00N 44°17' E 008°56'510.1
2018-Feb-14 15:30N 44°22' E 008°57'3 6.7
2018-Feb-14 15:00N 44°24' E 008°53'0 0.3
2018-Feb-14 14:29N 44°24' E 008°53'0 0.0
2018-Feb-14 13:59N 44°24' E 008°53'0 0.0
2018-Feb-14 13:29N 44°24' E 008°53'0 0.0
2018-Feb-14 12:58N 44°24' E 008°53'0 0.0
2018-Feb-14 12:28N 44°24' E 008°53'0 0.0
2018-Feb-14 11:58N 44°24' E 008°53'0 0.0
2018-Feb-14 11:28N 44°24' E 008°53'0 0.0
2018-Feb-14 10:58N 44°24' E 008°53'0 0.0
2018-Feb-14 10:28N 44°24' E 008°53'0 0.0
2018-Feb-14 09:58N 44°24' E 008°53'0 0.0
2018-Feb-14 09:28N 44°24' E 008°53'0 0.0
2018-Feb-14 08:58N 44°24' E 008°53'0 0.0
2018-Feb-14 08:28N 44°24' E 008°53'0 0.0
2018-Feb-14 07:58N 44°24' E 008°53'0 0.0
2018-Feb-14 07:28N 44°24' E 008°53'0 0.0
2018-Feb-14 06:58N 44°24' E 008°53'0 0.0
2018-Feb-14 06:28N 44°24' E 008°53'0 0.0
2018-Feb-14 05:58N 44°24' E 008°53'0 0.0
2018-Feb-14 05:28N 44°24' E 008°53'0 0.0
2018-Feb-14 04:58N 44°24' E 008°53'0 0.0
2018-Feb-14 04:28N 44°24' E 008°53'0 0.0
2018-Feb-14 03:58N 44°24' E 008°53'0 0.0
2018-Feb-14 03:28N 44°24' E 008°53'0 0.0
2018-Feb-14 02:58N 44°24' E 008°53'0 0.0
2018-Feb-14 02:28N 44°24' E 008°53'0 0.0
2018-Feb-14 01:58N 44°24' E 008°53'0 0.0
2018-Feb-14 01:28N 44°24' E 008°53'0 0.0
2018-Feb-14 00:58N 44°24' E 008°53'0 0.0
2018-Feb-14 00:28N 44°24' E 008°53'0 0.0
2018-Feb-13 23:58N 44°24' E 008°53'0 0.0
2018-Feb-13 23:28N 44°24' E 008°53'0 0.0
2018-Feb-13 22:58N 44°24' E 008°53'0 0.0
2018-Feb-13 22:28N 44°24' E 008°53'0 0.0
2018-Feb-13 21:58N 44°24' E 008°53'0 0.0
2018-Feb-13 21:28N 44°24' E 008°53'0 0.0
2018-Feb-13 20:58N 44°24' E 008°53'0 0.0
2018-Feb-13 20:28N 44°24' E 008°53'0 0.0
2018-Feb-13 19:58N 44°24' E 008°53'0 0.1
2018-Feb-13 19:28N 44°24' E 008°53'0 0.1
2018-Feb-13 18:58N 44°24' E 008°53'0 0.0
2018-Feb-13 18:28N 44°24' E 008°53'0 0.0
2018-Feb-13 17:58N 44°24' E 008°53'0 0.0
2018-Feb-13 17:28N 44°24' E 008°53'0 0.0
2018-Feb-13 16:58N 44°24' E 008°53'0 0.0
2018-Feb-13 16:28N 44°24' E 008°53'0 0.0
2018-Feb-13 15:55N 44°24' E 008°53'0 0.0
2018-Feb-13 15:28N 44°24' E 008°53'0 0.0
2018-Feb-13 14:58N 44°24' E 008°53'0 0.0
2018-Feb-13 14:28N 44°24' E 008°53'0 0.0
2018-Feb-13 13:58N 44°24' E 008°53'0 0.0
2018-Feb-13 13:28N 44°24' E 008°53'0 0.0
2018-Feb-13 12:55N 44°24' E 008°53'0 0.0
2018-Feb-13 12:28N 44°24' E 008°53'0 0.0
2018-Feb-13 11:58N 44°24' E 008°53'0 0.0
2018-Feb-13 11:25N 44°24' E 008°53'0 0.0
2018-Feb-13 10:58N 44°24' E 008°53'0 0.0
2018-Feb-13 10:28N 44°24' E 008°53'0 0.0
2018-Feb-13 09:55N 44°24' E 008°53'0 0.0
2018-Feb-13 09:28N 44°24' E 008°53'0 0.0
2018-Feb-13 08:55N 44°24' E 008°53'0 0.0
2018-Feb-13 08:28N 44°24' E 008°53'0 0.0
2018-Feb-13 08:00N 44°24' E 008°53'2 3.7
2018-Feb-13 07:31N 44°24' E 008°55'4 7.3
2018-Feb-13 07:01N 44°21' E 008°58'2 4.9
2018-Feb-13 06:31N 44°18' E 008°58'4 8.8
2018-Feb-13 06:00N 44°15' E 008°54'5 9.4
2018-Feb-13 05:30N 44°12' E 008°49'5 9.1
2018-Feb-13 05:00N 44°09' E 008°44'5 9.6
2018-Feb-13 04:30N 44°05' E 008°39'5 9.4
2018-Feb-13 04:01N 44°02' E 008°35'5 9.1
2018-Feb-13 03:30N 43°59' E 008°30'4 9.0
2018-Feb-13 03:00N 43°55' E 008°26'5 9.3
2018-Feb-13 02:30N 43°52' E 008°22'4 9.0
2018-Feb-13 02:01N 43°49' E 008°18'50 9.3
2018-Feb-12 20:37N 43°16' E 007°25'110.2
2018-Feb-12 20:30N 43°15' E 007°24'5 9.9
2018-Feb-12 20:00N 43°12' E 007°19'5 9.7
2018-Feb-12 19:31N 43°08' E 007°15'510.1
2018-Feb-12 19:01N 43°05' E 007°09'471 9.3
2018-Feb-10 16:24N 37°43' W 000°22'510.2
2018-Feb-10 15:54N 37°39' W 000°26'411.0
2018-Feb-10 15:30N 37°35' W 000°29'510.4
2018-Feb-10 15:00N 37°31' W 000°33'610.2
2018-Feb-10 14:28N 37°28' W 000°38'510.4
2018-Feb-10 14:00N 37°25' W 000°43'510.2
2018-Feb-10 13:30N 37°21' W 000°48'610.1
2018-Feb-10 12:56N 37°17' W 000°53'6 9.6
2018-Feb-10 12:18N 37°13' W 000°59'21711.6
2018-Feb-09 17:30N 35°60' W 005°14'714.9
2018-Feb-09 17:00N 35°59' W 005°23'11213.1
2018-Feb-09 08:30N 35°06' W 007°24'  
Track history (hours):
 
Tides and Currents Weather Stations Pressure Air Temp Water Temp Dewpoint Dewpoint Depression Visibility Wind Speed Wind Dir Waves Ship Positions

Irenes Rainbow

Last reported at 2018-Feb-18 03:00 UTC. Time now 2018-Feb-18 03:30 UTC.
Position N 37°19' W 000°56'.

Length 222 m; draft 9.9 m.

Type: Ship (hazmat cat A). MMSI: 636014741.

Date/timePositionNaut miles runAvg speedWind from/ knotsBaromVisibWave heightAir tempDewpointWater temp
2018-Feb-18 03:00N 37°19' W 000°56'713.4
2018-Feb-18 02:30N 37°23' W 000°50'713.7
2018-Feb-18 02:00N 37°28' W 000°44'713.4
2018-Feb-18 01:30N 37°32' W 000°37'612.7
2018-Feb-18 01:00N 37°37' W 000°32'612.6
2018-Feb-18 00:30N 37°42' W 000°27'712.4
2018-Feb-17 23:58N 37°47' W 000°23'612.5
2018-Feb-17 23:29N 37°53' W 000°19'612.8
2018-Feb-17 23:00N 37°58' W 000°14'712.8
2018-Feb-17 22:26N 38°04' W 000°09'8010.5
2018-Feb-17 14:45N 39°24' W 000°13'312.4
2018-Feb-17 14:30N 39°25' W 000°17'2 4.7
2018-Feb-17 13:59N 39°26' W 000°20'0 0.0
2018-Feb-17 13:29N 39°26' W 000°20'0 0.0
2018-Feb-17 12:59N 39°26' W 000°20'0 0.0
2018-Feb-17 12:29N 39°26' W 000°20'0 0.0
2018-Feb-17 11:41N 39°26' W 000°20'0 0.0
2018-Feb-17 11:29N 39°26' W 000°20'0 0.0
2018-Feb-17 10:59N 39°26' W 000°20'0 0.0
2018-Feb-17 10:29N 39°26' W 000°20'0 0.0
2018-Feb-17 09:59N 39°26' W 000°20'0 0.0
2018-Feb-17 09:29N 39°26' W 000°20'0 0.0
2018-Feb-17 08:59N 39°26' W 000°20'0 0.0
2018-Feb-17 08:29N 39°26' W 000°20'0 0.0
2018-Feb-17 07:59N 39°26' W 000°20'0 0.0
2018-Feb-17 07:29N 39°26' W 000°20'0 0.0
2018-Feb-17 06:59N 39°26' W 000°20'0 0.0
2018-Feb-17 06:29N 39°26' W 000°20'0 0.0
2018-Feb-17 05:59N 39°26' W 000°20'0 0.0
2018-Feb-17 05:29N 39°26' W 000°20'0 0.0
2018-Feb-17 04:59N 39°26' W 000°20'0 0.0
2018-Feb-17 04:29N 39°26' W 000°20'0 0.0
2018-Feb-17 03:59N 39°26' W 000°20'0 0.0
2018-Feb-17 03:29N 39°26' W 000°20'0 0.0
2018-Feb-17 02:59N 39°26' W 000°20'0 0.8
2018-Feb-17 02:31N 39°26' W 000°19'3 5.3
2018-Feb-17 02:00N 39°26' W 000°16'2 0.7
2018-Feb-16 23:35N 39°25' W 000°14'0 0.3
2018-Feb-16 23:30N 39°25' W 000°14'0 0.4
2018-Feb-16 23:00N 39°25' W 000°14'0 0.6
2018-Feb-16 22:28N 39°26' W 000°14'4 7.3
2018-Feb-16 21:58N 39°28' W 000°10'612.6
2018-Feb-16 21:30N 39°33' W 000°06'115 5.0
2018-Feb-15 22:42N 40°46' E 001°51'313.2
2018-Feb-15 22:27N 40°47' E 001°55'713.3
2018-Feb-15 21:57N 40°51' E 002°01'613.3
2018-Feb-15 21:29N 40°55' E 002°08'813.3
2018-Feb-15 20:55N 41°00' E 002°16'613.5
2018-Feb-15 20:30N 41°03' E 002°22'713.7
2018-Feb-15 20:00N 41°07' E 002°29'713.4
2018-Feb-15 19:30N 41°11' E 002°36'813.3
2018-Feb-15 18:52N 41°16' E 002°45'513.2
2018-Feb-15 18:30N 41°19' E 002°50'21412.7
2018-Feb-15 01:39N 43°03' E 007°03'211.3
2018-Feb-15 01:30N 43°04' E 007°05'611.6
2018-Feb-15 01:00N 43°08' E 007°11'611.5
2018-Feb-15 00:30N 43°11' E 007°17'611.2
2018-Feb-15 00:00N 43°15' E 007°22'611.2
2018-Feb-14 23:30N 43°19' E 007°28'611.2
2018-Feb-14 23:00N 43°23' E 007°34'611.5
2018-Feb-14 22:30N 43°26' E 007°40'4611.5
2018-Feb-14 18:31N 43°57' E 008°27'511.4
2018-Feb-14 18:04N 44°01' E 008°32'111.5
2018-Feb-14 18:00N 44°01' E 008°33'611.5
2018-Feb-14 17:30N 44°05' E 008°38'611.7
2018-Feb-14 17:00N 44°10' E 008°44'611.7
2018-Feb-14 16:30N 44°14' E 008°50'611.4
2018-Feb-14 16:00N 44°17' E 008°56'510.1
2018-Feb-14 15:30N 44°22' E 008°57'3 6.7
2018-Feb-14 15:00N 44°24' E 008°53'0 0.3
2018-Feb-14 14:29N 44°24' E 008°53'0 0.0
2018-Feb-14 13:59N 44°24' E 008°53'0 0.0
2018-Feb-14 13:29N 44°24' E 008°53'0 0.0
2018-Feb-14 12:58N 44°24' E 008°53'0 0.0
2018-Feb-14 12:28N 44°24' E 008°53'0 0.0
2018-Feb-14 11:58N 44°24' E 008°53'0 0.0
2018-Feb-14 11:28N 44°24' E 008°53'0 0.0
2018-Feb-14 10:58N 44°24' E 008°53'0 0.0
2018-Feb-14 10:28N 44°24' E 008°53'0 0.0
2018-Feb-14 09:58N 44°24' E 008°53'0 0.0
2018-Feb-14 09:28N 44°24' E 008°53'0 0.0
2018-Feb-14 08:58N 44°24' E 008°53'0 0.0
2018-Feb-14 08:28N 44°24' E 008°53'0 0.0
2018-Feb-14 07:58N 44°24' E 008°53'0 0.0
2018-Feb-14 07:28N 44°24' E 008°53'0 0.0
2018-Feb-14 06:58N 44°24' E 008°53'0 0.0
2018-Feb-14 06:28N 44°24' E 008°53'0 0.0
2018-Feb-14 05:58N 44°24' E 008°53'0 0.0
2018-Feb-14 05:28N 44°24' E 008°53'0 0.0
2018-Feb-14 04:58N 44°24' E 008°53'0 0.0
2018-Feb-14 04:28N 44°24' E 008°53'0 0.0
2018-Feb-14 03:58N 44°24' E 008°53'0 0.0
2018-Feb-14 03:28N 44°24' E 008°53'0 0.0
2018-Feb-14 02:58N 44°24' E 008°53'0 0.0
2018-Feb-14 02:28N 44°24' E 008°53'0 0.0
2018-Feb-14 01:58N 44°24' E 008°53'0 0.0
2018-Feb-14 01:28N 44°24' E 008°53'0 0.0
2018-Feb-14 00:58N 44°24' E 008°53'0 0.0
2018-Feb-14 00:28N 44°24' E 008°53'0 0.0
2018-Feb-13 23:58N 44°24' E 008°53'0 0.0
2018-Feb-13 23:28N 44°24' E 008°53'0 0.0
2018-Feb-13 22:58N 44°24' E 008°53'0 0.0
2018-Feb-13 22:28N 44°24' E 008°53'0 0.0
2018-Feb-13 21:58N 44°24' E 008°53'0 0.0
2018-Feb-13 21:28N 44°24' E 008°53'0 0.0
2018-Feb-13 20:58N 44°24' E 008°53'0 0.0
2018-Feb-13 20:28N 44°24' E 008°53'0 0.0
2018-Feb-13 19:58N 44°24' E 008°53'0 0.1
2018-Feb-13 19:28N 44°24' E 008°53'0 0.1
2018-Feb-13 18:58N 44°24' E 008°53'0 0.0
2018-Feb-13 18:28N 44°24' E 008°53'0 0.0
2018-Feb-13 17:58N 44°24' E 008°53'0 0.0
2018-Feb-13 17:28N 44°24' E 008°53'0 0.0
2018-Feb-13 16:58N 44°24' E 008°53'0 0.0
2018-Feb-13 16:28N 44°24' E 008°53'0 0.0
2018-Feb-13 15:55N 44°24' E 008°53'0 0.0
2018-Feb-13 15:28N 44°24' E 008°53'0 0.0
2018-Feb-13 14:58N 44°24' E 008°53'0 0.0
2018-Feb-13 14:28N 44°24' E 008°53'0 0.0
2018-Feb-13 13:58N 44°24' E 008°53'0 0.0
2018-Feb-13 13:28N 44°24' E 008°53'0 0.0
2018-Feb-13 12:55N 44°24' E 008°53'0 0.0
2018-Feb-13 12:28N 44°24' E 008°53'0 0.0
2018-Feb-13 11:58N 44°24' E 008°53'0 0.0
2018-Feb-13 11:25N 44°24' E 008°53'0 0.0
2018-Feb-13 10:58N 44°24' E 008°53'0 0.0
2018-Feb-13 10:28N 44°24' E 008°53'0 0.0
2018-Feb-13 09:55N 44°24' E 008°53'0 0.0
2018-Feb-13 09:28N 44°24' E 008°53'0 0.0
2018-Feb-13 08:55N 44°24' E 008°53'0 0.0
2018-Feb-13 08:28N 44°24' E 008°53'0 0.0
2018-Feb-13 08:00N 44°24' E 008°53'2 3.7
2018-Feb-13 07:31N 44°24' E 008°55'4 7.3
2018-Feb-13 07:01N 44°21' E 008°58'2 4.9
2018-Feb-13 06:31N 44°18' E 008°58'4 8.8
2018-Feb-13 06:00N 44°15' E 008°54'5 9.4
2018-Feb-13 05:30N 44°12' E 008°49'5 9.1
2018-Feb-13 05:00N 44°09' E 008°44'5 9.6
2018-Feb-13 04:30N 44°05' E 008°39'5 9.4
2018-Feb-13 04:01N 44°02' E 008°35'5 9.1
2018-Feb-13 03:30N 43°59' E 008°30'4 9.0
2018-Feb-13 03:00N 43°55' E 008°26'5 9.3
2018-Feb-13 02:30N 43°52' E 008°22'4 9.0
2018-Feb-13 02:01N 43°49' E 008°18'50 9.3
2018-Feb-12 20:37N 43°16' E 007°25'110.2
2018-Feb-12 20:30N 43°15' E 007°24'5 9.9
2018-Feb-12 20:00N 43°12' E 007°19'5 9.7
2018-Feb-12 19:31N 43°08' E 007°15'510.1
2018-Feb-12 19:01N 43°05' E 007°09'471 9.3
2018-Feb-10 16:24N 37°43' W 000°22'510.2
2018-Feb-10 15:54N 37°39' W 000°26'411.0
2018-Feb-10 15:30N 37°35' W 000°29'510.4
2018-Feb-10 15:00N 37°31' W 000°33'610.2
2018-Feb-10 14:28N 37°28' W 000°38'510.4
2018-Feb-10 14:00N 37°25' W 000°43'510.2
2018-Feb-10 13:30N 37°21' W 000°48'610.1
2018-Feb-10 12:56N 37°17' W 000°53'6 9.6
2018-Feb-10 12:18N 37°13' W 000°59'21711.6
2018-Feb-09 17:30N 35°60' W 005°14'714.9
2018-Feb-09 17:00N 35°59' W 005°23'11213.1
2018-Feb-09 08:30N 35°06' W 007°24'  

Dump ship's entire track history